sensor_id;sensor_type;location;lat;lon;timestamp;P1;durP1;ratioP1;P2;durP2;ratioP2
47894;SDS011;33653;52.302;8.134;2023-04-24T00:00:27;2.05;;;1.00;;
47894;SDS011;33653;52.302;8.134;2023-04-24T00:02:55;1.20;;;0.88;;
47894;SDS011;33653;52.302;8.134;2023-04-24T00:05:25;1.05;;;1.05;;
47894;SDS011;33653;52.302;8.134;2023-04-24T00:07:53;1.05;;;1.00;;
47894;SDS011;33653;52.302;8.134;2023-04-24T00:10:22;0.80;;;0.80;;
47894;SDS011;33653;52.302;8.134;2023-04-24T00:12:50;1.45;;;1.10;;
47894;SDS011;33653;52.302;8.134;2023-04-24T00:15:18;1.10;;;1.00;;
47894;SDS011;33653;52.302;8.134;2023-04-24T00:17:47;0.80;;;0.80;;
47894;SDS011;33653;52.302;8.134;2023-04-24T00:20:15;0.90;;;0.90;;
47894;SDS011;33653;52.302;8.134;2023-04-24T00:22:43;1.02;;;1.00;;
47894;SDS011;33653;52.302;8.134;2023-04-24T00:25:12;2.55;;;1.23;;
47894;SDS011;33653;52.302;8.134;2023-04-24T00:27:40;1.33;;;1.23;;
47894;SDS011;33653;52.302;8.134;2023-04-24T00:30:08;1.35;;;1.25;;
47894;SDS011;33653;52.302;8.134;2023-04-24T00:32:37;1.65;;;1.42;;
47894;SDS011;33653;52.302;8.134;2023-04-24T00:35:05;2.33;;;1.65;;
47894;SDS011;33653;52.302;8.134;2023-04-24T00:37:34;1.60;;;1.50;;
47894;SDS011;33653;52.302;8.134;2023-04-24T00:40:03;2.13;;;1.48;;
47894;SDS011;33653;52.302;8.134;2023-04-24T00:42:33;1.27;;;1.17;;
47894;SDS011;33653;52.302;8.134;2023-04-24T00:45:04;1.52;;;1.27;;
47894;SDS011;33653;52.302;8.134;2023-04-24T00:47:33;2.60;;;1.38;;
47894;SDS011;33653;52.302;8.134;2023-04-24T00:50:05;2.70;;;1.25;;
47894;SDS011;33653;52.302;8.134;2023-04-24T00:52:34;2.80;;;1.48;;
47894;SDS011;33653;52.302;8.134;2023-04-24T00:55:03;1.10;;;1.10;;
47894;SDS011;33653;52.302;8.134;2023-04-24T00:57:32;1.50;;;1.40;;
47894;SDS011;33653;52.302;8.134;2023-04-24T01:00:01;1.20;;;1.02;;
47894;SDS011;33653;52.302;8.134;2023-04-24T01:02:30;4.43;;;1.27;;
47894;SDS011;33653;52.302;8.134;2023-04-24T01:07:30;1.40;;;1.25;;
47894;SDS011;33653;52.302;8.134;2023-04-24T01:10:00;1.27;;;1.17;;
47894;SDS011;33653;52.302;8.134;2023-04-24T01:12:29;1.35;;;1.10;;
47894;SDS011;33653;52.302;8.134;2023-04-24T01:14:57;2.88;;;1.45;;
47894;SDS011;33653;52.302;8.134;2023-04-24T01:17:26;1.20;;;1.13;;
47894;SDS011;33653;52.302;8.134;2023-04-24T01:19:54;2.10;;;1.10;;
47894;SDS011;33653;52.302;8.134;2023-04-24T01:22:25;1.48;;;1.33;;
47894;SDS011;33653;52.302;8.134;2023-04-24T01:24:53;1.40;;;1.20;;
47894;SDS011;33653;52.302;8.134;2023-04-24T01:27:22;3.60;;;1.40;;
47894;SDS011;33653;52.302;8.134;2023-04-24T01:29:50;4.43;;;1.30;;
47894;SDS011;33653;52.302;8.134;2023-04-24T01:32:19;1.48;;;1.20;;
47894;SDS011;33653;52.302;8.134;2023-04-24T01:34:47;1.85;;;1.30;;
47894;SDS011;33653;52.302;8.134;2023-04-24T01:37:16;1.42;;;1.30;;
47894;SDS011;33653;52.302;8.134;2023-04-24T01:39:44;1.42;;;1.33;;
47894;SDS011;33653;52.302;8.134;2023-04-24T01:42:13;1.13;;;1.02;;
47894;SDS011;33653;52.302;8.134;2023-04-24T01:44:41;1.20;;;1.10;;
47894;SDS011;33653;52.302;8.134;2023-04-24T01:47:10;1.50;;;1.40;;
47894;SDS011;33653;52.302;8.134;2023-04-24T01:49:39;0.98;;;0.93;;
47894;SDS011;33653;52.302;8.134;2023-04-24T01:52:08;1.33;;;1.00;;
47894;SDS011;33653;52.302;8.134;2023-04-24T01:54:36;1.30;;;1.20;;
47894;SDS011;33653;52.302;8.134;2023-04-24T01:57:04;3.60;;;1.23;;
47894;SDS011;33653;52.302;8.134;2023-04-24T01:59:33;1.80;;;1.00;;
47894;SDS011;33653;52.302;8.134;2023-04-24T02:02:03;1.38;;;1.23;;
47894;SDS011;33653;52.302;8.134;2023-04-24T02:04:32;3.20;;;1.02;;
47894;SDS011;33653;52.302;8.134;2023-04-24T02:07:00;1.92;;;1.08;;
47894;SDS011;33653;52.302;8.134;2023-04-24T02:09:31;0.98;;;0.98;;
47894;SDS011;33653;52.302;8.134;2023-04-24T02:11:59;1.27;;;1.17;;
47894;SDS011;33653;52.302;8.134;2023-04-24T02:14:28;1.15;;;1.05;;
47894;SDS011;33653;52.302;8.134;2023-04-24T02:16:56;1.27;;;1.00;;
47894;SDS011;33653;52.302;8.134;2023-04-24T02:19:24;3.83;;;1.02;;
47894;SDS011;33653;52.302;8.134;2023-04-24T02:21:53;3.10;;;1.30;;
47894;SDS011;33653;52.302;8.134;2023-04-24T02:24:21;2.05;;;1.05;;
47894;SDS011;33653;52.302;8.134;2023-04-24T02:26:49;1.45;;;1.15;;
47894;SDS011;33653;52.302;8.134;2023-04-24T02:29:17;1.05;;;0.95;;
47894;SDS011;33653;52.302;8.134;2023-04-24T02:31:46;3.33;;;1.55;;
47894;SDS011;33653;52.302;8.134;2023-04-24T02:34:14;1.20;;;1.10;;
47894;SDS011;33653;52.302;8.134;2023-04-24T02:36:43;1.30;;;1.20;;
47894;SDS011;33653;52.302;8.134;2023-04-24T02:39:11;1.33;;;1.23;;
47894;SDS011;33653;52.302;8.134;2023-04-24T02:41:40;1.45;;;1.25;;
47894;SDS011;33653;52.302;8.134;2023-04-24T02:44:08;1.40;;;1.30;;
47894;SDS011;33653;52.302;8.134;2023-04-24T02:46:37;3.53;;;1.35;;
47894;SDS011;33653;52.302;8.134;2023-04-24T02:49:05;2.03;;;1.48;;
47894;SDS011;33653;52.302;8.134;2023-04-24T02:51:34;2.78;;;1.52;;
47894;SDS011;33653;52.302;8.134;2023-04-24T02:54:05;3.58;;;1.10;;
47894;SDS011;33653;52.302;8.134;2023-04-24T02:56:33;1.40;;;1.30;;
47894;SDS011;33653;52.302;8.134;2023-04-24T02:59:03;1.52;;;1.30;;
47894;SDS011;33653;52.302;8.134;2023-04-24T03:01:32;1.48;;;1.38;;
47894;SDS011;33653;52.302;8.134;2023-04-24T03:04:00;1.30;;;1.20;;
47894;SDS011;33653;52.302;8.134;2023-04-24T03:06:29;5.50;;;1.67;;
47894;SDS011;33653;52.302;8.134;2023-04-24T03:09:00;1.52;;;1.42;;
47894;SDS011;33653;52.302;8.134;2023-04-24T03:11:28;1.60;;;1.50;;
47894;SDS011;33653;52.302;8.134;2023-04-24T03:13:56;1.50;;;1.40;;
47894;SDS011;33653;52.302;8.134;2023-04-24T03:16:25;2.28;;;1.67;;
47894;SDS011;33653;52.302;8.134;2023-04-24T03:18:54;2.58;;;1.98;;
47894;SDS011;33653;52.302;8.134;2023-04-24T03:21:25;3.17;;;1.92;;
47894;SDS011;33653;52.302;8.134;2023-04-24T03:23:54;2.53;;;1.70;;
47894;SDS011;33653;52.302;8.134;2023-04-24T03:26:23;1.95;;;1.70;;
47894;SDS011;33653;52.302;8.134;2023-04-24T03:29:04;1.95;;;1.40;;
47894;SDS011;33653;52.302;8.134;2023-04-24T03:31:33;2.10;;;1.60;;
47894;SDS011;33653;52.302;8.134;2023-04-24T03:34:02;3.50;;;1.63;;
47894;SDS011;33653;52.302;8.134;2023-04-24T03:36:30;1.95;;;1.65;;
47894;SDS011;33653;52.302;8.134;2023-04-24T03:38:59;1.77;;;1.33;;
47894;SDS011;33653;52.302;8.134;2023-04-24T03:41:31;1.63;;;1.52;;
47894;SDS011;33653;52.302;8.134;2023-04-24T03:44:16;2.50;;;1.80;;
47894;SDS011;33653;52.302;8.134;2023-04-24T03:46:45;2.65;;;2.08;;
47894;SDS011;33653;52.302;8.134;2023-04-24T03:49:14;4.75;;;1.77;;
47894;SDS011;33653;52.302;8.134;2023-04-24T03:51:44;3.35;;;2.10;;
47894;SDS011;33653;52.302;8.134;2023-04-24T03:54:25;2.28;;;2.08;;
47894;SDS011;33653;52.302;8.134;2023-04-24T03:56:54;2.50;;;2.30;;
47894;SDS011;33653;52.302;8.134;2023-04-24T03:59:24;2.40;;;2.08;;
47894;SDS011;33653;52.302;8.134;2023-04-24T04:02:11;2.75;;;2.28;;
47894;SDS011;33653;52.302;8.134;2023-04-24T04:04:40;3.38;;;2.67;;
47894;SDS011;33653;52.302;8.134;2023-04-24T04:07:10;4.22;;;3.33;;
47894;SDS011;33653;52.302;8.134;2023-04-24T04:09:38;3.80;;;3.08;;
47894;SDS011;33653;52.302;8.134;2023-04-24T04:12:07;3.67;;;3.03;;
47894;SDS011;33653;52.302;8.134;2023-04-24T04:14:38;4.32;;;3.10;;
47894;SDS011;33653;52.302;8.134;2023-04-24T04:17:06;5.05;;;3.17;;
47894;SDS011;33653;52.302;8.134;2023-04-24T04:19:34;4.55;;;3.60;;
47894;SDS011;33653;52.302;8.134;2023-04-24T04:22:03;5.72;;;3.83;;
47894;SDS011;33653;52.302;8.134;2023-04-24T04:24:42;4.07;;;3.67;;
47894;SDS011;33653;52.302;8.134;2023-04-24T04:27:11;5.28;;;3.78;;
47894;SDS011;33653;52.302;8.134;2023-04-24T04:29:53;4.82;;;3.70;;
47894;SDS011;33653;52.302;8.134;2023-04-24T04:32:23;14.15;;;4.53;;
47894;SDS011;33653;52.302;8.134;2023-04-24T04:34:53;4.80;;;3.63;;
47894;SDS011;33653;52.302;8.134;2023-04-24T04:37:23;5.35;;;3.47;;
47894;SDS011;33653;52.302;8.134;2023-04-24T04:40:02;6.25;;;3.53;;
47894;SDS011;33653;52.302;8.134;2023-04-24T04:42:40;5.78;;;4.18;;
47894;SDS011;33653;52.302;8.134;2023-04-24T04:45:09;6.57;;;4.22;;
47894;SDS011;33653;52.302;8.134;2023-04-24T04:47:54;7.28;;;4.53;;
47894;SDS011;33653;52.302;8.134;2023-04-24T04:50:23;7.38;;;5.15;;
47894;SDS011;33653;52.302;8.134;2023-04-24T04:53:00;7.85;;;4.18;;
47894;SDS011;33653;52.302;8.134;2023-04-24T04:55:33;8.50;;;4.75;;
47894;SDS011;33653;52.302;8.134;2023-04-24T04:58:22;5.43;;;4.40;;
47894;SDS011;33653;52.302;8.134;2023-04-24T05:00:55;6.80;;;5.07;;
47894;SDS011;33653;52.302;8.134;2023-04-24T05:03:32;5.82;;;4.50;;
47894;SDS011;33653;52.302;8.134;2023-04-24T05:06:05;7.50;;;4.72;;
47894;SDS011;33653;52.302;8.134;2023-04-24T05:08:37;7.45;;;5.38;;
47894;SDS011;33653;52.302;8.134;2023-04-24T05:11:09;7.72;;;5.43;;
47894;SDS011;33653;52.302;8.134;2023-04-24T05:13:39;8.40;;;5.50;;
47894;SDS011;33653;52.302;8.134;2023-04-24T05:16:18;10.18;;;6.45;;
47894;SDS011;33653;52.302;8.134;2023-04-24T05:18:48;8.68;;;5.05;;
47894;SDS011;33653;52.302;8.134;2023-04-24T05:21:22;10.68;;;6.35;;
47894;SDS011;33653;52.302;8.134;2023-04-24T05:23:52;8.80;;;5.30;;
47894;SDS011;33653;52.302;8.134;2023-04-24T05:26:35;9.57;;;6.40;;
47894;SDS011;33653;52.302;8.134;2023-04-24T05:29:05;11.98;;;6.57;;
47894;SDS011;33653;52.302;8.134;2023-04-24T05:31:34;7.13;;;5.38;;
47894;SDS011;33653;52.302;8.134;2023-04-24T05:34:02;10.50;;;6.85;;
47894;SDS011;33653;52.302;8.134;2023-04-24T05:36:32;11.52;;;5.90;;
47894;SDS011;33653;52.302;8.134;2023-04-24T05:39:00;7.18;;;5.57;;
47894;SDS011;33653;52.302;8.134;2023-04-24T05:41:29;8.75;;;6.25;;
47894;SDS011;33653;52.302;8.134;2023-04-24T05:43:57;15.20;;;6.50;;
47894;SDS011;33653;52.302;8.134;2023-04-24T05:46:26;10.55;;;7.05;;
47894;SDS011;33653;52.302;8.134;2023-04-24T05:48:56;11.52;;;7.15;;
47894;SDS011;33653;52.302;8.134;2023-04-24T05:51:24;11.18;;;6.85;;
47894;SDS011;33653;52.302;8.134;2023-04-24T05:53:53;12.45;;;7.97;;
47894;SDS011;33653;52.302;8.134;2023-04-24T05:56:21;9.93;;;7.03;;
47894;SDS011;33653;52.302;8.134;2023-04-24T05:58:50;10.75;;;7.30;;
47894;SDS011;33653;52.302;8.134;2023-04-24T06:01:19;15.82;;;7.97;;
47894;SDS011;33653;52.302;8.134;2023-04-24T06:03:55;11.63;;;7.60;;
47894;SDS011;33653;52.302;8.134;2023-04-24T06:06:25;13.43;;;7.85;;
47894;SDS011;33653;52.302;8.134;2023-04-24T06:08:54;12.95;;;7.88;;
47894;SDS011;33653;52.302;8.134;2023-04-24T06:11:25;12.03;;;8.30;;
47894;SDS011;33653;52.302;8.134;2023-04-24T06:13:53;14.75;;;8.45;;
47894;SDS011;33653;52.302;8.134;2023-04-24T06:16:39;12.35;;;7.75;;
47894;SDS011;33653;52.302;8.134;2023-04-24T06:19:29;14.75;;;8.55;;
47894;SDS011;33653;52.302;8.134;2023-04-24T06:21:58;13.25;;;8.40;;
47894;SDS011;33653;52.302;8.134;2023-04-24T06:24:29;11.63;;;7.38;;
47894;SDS011;33653;52.302;8.134;2023-04-24T06:26:58;13.50;;;8.88;;
47894;SDS011;33653;52.302;8.134;2023-04-24T06:29:27;13.50;;;8.45;;
47894;SDS011;33653;52.302;8.134;2023-04-24T06:31:55;16.00;;;8.10;;
47894;SDS011;33653;52.302;8.134;2023-04-24T06:34:24;15.45;;;8.55;;
47894;SDS011;33653;52.302;8.134;2023-04-24T06:36:52;12.85;;;8.23;;
47894;SDS011;33653;52.302;8.134;2023-04-24T06:39:21;11.38;;;8.32;;
47894;SDS011;33653;52.302;8.134;2023-04-24T06:41:50;13.50;;;7.70;;
47894;SDS011;33653;52.302;8.134;2023-04-24T06:44:20;15.88;;;9.13;;
47894;SDS011;33653;52.302;8.134;2023-04-24T06:46:48;16.42;;;8.48;;
47894;SDS011;33653;52.302;8.134;2023-04-24T06:49:16;10.15;;;7.50;;
47894;SDS011;33653;52.302;8.134;2023-04-24T06:51:45;13.20;;;7.53;;
47894;SDS011;33653;52.302;8.134;2023-04-24T06:54:13;14.25;;;7.38;;
47894;SDS011;33653;52.302;8.134;2023-04-24T06:56:42;12.40;;;8.50;;
47894;SDS011;33653;52.302;8.134;2023-04-24T06:59:12;14.90;;;8.77;;
47894;SDS011;33653;52.302;8.134;2023-04-24T07:01:43;15.05;;;7.63;;
47894;SDS011;33653;52.302;8.134;2023-04-24T07:04:11;8.25;;;6.10;;
47894;SDS011;33653;52.302;8.134;2023-04-24T07:06:40;9.75;;;7.47;;
47894;SDS011;33653;52.302;8.134;2023-04-24T07:09:08;12.73;;;7.10;;
47894;SDS011;33653;52.302;8.134;2023-04-24T07:11:37;10.25;;;6.78;;
47894;SDS011;33653;52.302;8.134;2023-04-24T07:14:07;8.93;;;6.93;;
47894;SDS011;33653;52.302;8.134;2023-04-24T07:16:35;8.70;;;5.82;;
47894;SDS011;33653;52.302;8.134;2023-04-24T07:19:04;12.40;;;7.45;;
47894;SDS011;33653;52.302;8.134;2023-04-24T07:21:32;10.63;;;7.55;;
47894;SDS011;33653;52.302;8.134;2023-04-24T07:24:01;14.32;;;6.90;;
47894;SDS011;33653;52.302;8.134;2023-04-24T07:26:29;13.15;;;6.63;;
47894;SDS011;33653;52.302;8.134;2023-04-24T07:28:58;11.70;;;7.20;;
47894;SDS011;33653;52.302;8.134;2023-04-24T07:31:26;13.73;;;6.00;;
47894;SDS011;33653;52.302;8.134;2023-04-24T07:33:55;9.30;;;7.20;;
47894;SDS011;33653;52.302;8.134;2023-04-24T07:36:25;8.93;;;6.40;;
47894;SDS011;33653;52.302;8.134;2023-04-24T07:38:54;9.48;;;6.18;;
47894;SDS011;33653;52.302;8.134;2023-04-24T07:41:23;11.63;;;6.60;;
47894;SDS011;33653;52.302;8.134;2023-04-24T07:43:52;9.60;;;6.95;;
47894;SDS011;33653;52.302;8.134;2023-04-24T07:46:20;11.25;;;6.57;;
47894;SDS011;33653;52.302;8.134;2023-04-24T07:48:50;10.05;;;7.18;;
47894;SDS011;33653;52.302;8.134;2023-04-24T07:51:36;9.70;;;6.70;;
47894;SDS011;33653;52.302;8.134;2023-04-24T07:54:05;12.35;;;6.32;;
47894;SDS011;33653;52.302;8.134;2023-04-24T07:56:33;9.55;;;6.72;;
47894;SDS011;33653;52.302;8.134;2023-04-24T07:59:05;9.40;;;6.20;;
47894;SDS011;33653;52.302;8.134;2023-04-24T08:01:34;7.38;;;5.80;;
47894;SDS011;33653;52.302;8.134;2023-04-24T08:04:02;8.02;;;6.40;;
47894;SDS011;33653;52.302;8.134;2023-04-24T08:06:31;7.65;;;5.25;;
47894;SDS011;33653;52.302;8.134;2023-04-24T08:09:00;7.90;;;5.32;;
47894;SDS011;33653;52.302;8.134;2023-04-24T08:11:28;7.18;;;5.60;;
47894;SDS011;33653;52.302;8.134;2023-04-24T08:13:56;10.50;;;6.22;;
47894;SDS011;33653;52.302;8.134;2023-04-24T08:16:27;7.68;;;5.40;;
47894;SDS011;33653;52.302;8.134;2023-04-24T08:18:55;11.93;;;6.18;;
47894;SDS011;33653;52.302;8.134;2023-04-24T08:21:24;9.05;;;6.05;;
47894;SDS011;33653;52.302;8.134;2023-04-24T08:23:54;12.63;;;5.90;;
47894;SDS011;33653;52.302;8.134;2023-04-24T08:26:22;8.27;;;5.93;;
47894;SDS011;33653;52.302;8.134;2023-04-24T08:28:50;7.15;;;5.68;;
47894;SDS011;33653;52.302;8.134;2023-04-24T08:31:19;9.85;;;5.97;;
47894;SDS011;33653;52.302;8.134;2023-04-24T08:33:47;7.18;;;5.03;;
47894;SDS011;33653;52.302;8.134;2023-04-24T08:36:15;9.32;;;5.82;;
47894;SDS011;33653;52.302;8.134;2023-04-24T08:38:43;8.50;;;5.65;;
47894;SDS011;33653;52.302;8.134;2023-04-24T08:41:14;7.60;;;5.25;;
47894;SDS011;33653;52.302;8.134;2023-04-24T08:43:43;7.13;;;4.93;;
47894;SDS011;33653;52.302;8.134;2023-04-24T08:46:13;6.55;;;4.82;;
47894;SDS011;33653;52.302;8.134;2023-04-24T08:48:43;6.95;;;5.18;;
47894;SDS011;33653;52.302;8.134;2023-04-24T08:51:12;8.48;;;5.03;;
47894;SDS011;33653;52.302;8.134;2023-04-24T08:53:40;6.30;;;4.72;;
47894;SDS011;33653;52.302;8.134;2023-04-24T08:56:09;4.53;;;3.83;;
47894;SDS011;33653;52.302;8.134;2023-04-24T08:58:40;5.65;;;4.28;;
47894;SDS011;33653;52.302;8.134;2023-04-24T09:01:09;5.45;;;4.15;;
47894;SDS011;33653;52.302;8.134;2023-04-24T09:03:38;5.30;;;4.07;;
47894;SDS011;33653;52.302;8.134;2023-04-24T09:06:07;5.03;;;3.88;;
47894;SDS011;33653;52.302;8.134;2023-04-24T09:08:37;5.70;;;4.37;;
47894;SDS011;33653;52.302;8.134;2023-04-24T09:11:08;5.80;;;4.43;;
47894;SDS011;33653;52.302;8.134;2023-04-24T09:13:37;6.45;;;4.20;;
47894;SDS011;33653;52.302;8.134;2023-04-24T09:16:05;5.13;;;3.97;;
47894;SDS011;33653;52.302;8.134;2023-04-24T09:18:34;5.35;;;3.67;;
47894;SDS011;33653;52.302;8.134;2023-04-24T09:21:03;6.78;;;4.32;;
47894;SDS011;33653;52.302;8.134;2023-04-24T09:23:35;5.85;;;4.20;;
47894;SDS011;33653;52.302;8.134;2023-04-24T09:26:04;6.00;;;4.15;;
47894;SDS011;33653;52.302;8.134;2023-04-24T09:28:36;6.85;;;3.88;;
47894;SDS011;33653;52.302;8.134;2023-04-24T09:31:09;4.53;;;3.70;;
47894;SDS011;33653;52.302;8.134;2023-04-24T09:33:55;5.18;;;4.10;;
47894;SDS011;33653;52.302;8.134;2023-04-24T09:39:08;5.80;;;3.83;;
47894;SDS011;33653;52.302;8.134;2023-04-24T09:41:52;3.90;;;3.50;;
47894;SDS011;33653;52.302;8.134;2023-04-24T09:44:27;8.77;;;4.28;;
47894;SDS011;33653;52.302;8.134;2023-04-24T09:46:57;4.80;;;3.97;;
47894;SDS011;33653;52.302;8.134;2023-04-24T09:52:04;5.50;;;4.17;;
47894;SDS011;33653;52.302;8.134;2023-04-24T09:54:34;8.88;;;4.38;;
47894;SDS011;33653;52.302;8.134;2023-04-24T09:57:09;4.95;;;3.97;;
47894;SDS011;33653;52.302;8.134;2023-04-24T09:59:45;6.57;;;4.28;;
47894;SDS011;33653;52.302;8.134;2023-04-24T10:02:17;4.00;;;3.60;;
47894;SDS011;33653;52.302;8.134;2023-04-24T10:04:54;4.82;;;4.00;;
47894;SDS011;33653;52.302;8.134;2023-04-24T10:07:27;4.97;;;3.85;;
47894;SDS011;33653;52.302;8.134;2023-04-24T10:09:55;4.40;;;3.90;;
47894;SDS011;33653;52.302;8.134;2023-04-24T10:12:24;4.53;;;3.53;;
47894;SDS011;33653;52.302;8.134;2023-04-24T10:14:56;3.92;;;3.38;;
47894;SDS011;33653;52.302;8.134;2023-04-24T10:17:25;3.88;;;3.47;;
47894;SDS011;33653;52.302;8.134;2023-04-24T10:19:54;4.75;;;3.40;;
47894;SDS011;33653;52.302;8.134;2023-04-24T10:22:22;4.93;;;3.90;;
47894;SDS011;33653;52.302;8.134;2023-04-24T10:24:50;5.13;;;4.18;;
47894;SDS011;33653;52.302;8.134;2023-04-24T10:27:19;5.13;;;3.70;;
47894;SDS011;33653;52.302;8.134;2023-04-24T10:29:48;3.85;;;3.45;;
47894;SDS011;33653;52.302;8.134;2023-04-24T10:32:19;5.15;;;3.60;;
47894;SDS011;33653;52.302;8.134;2023-04-24T10:34:47;3.35;;;2.28;;
47894;SDS011;33653;52.302;8.134;2023-04-24T10:37:16;2.30;;;2.10;;
47894;SDS011;33653;52.302;8.134;2023-04-24T10:39:47;3.83;;;2.92;;
47894;SDS011;33653;52.302;8.134;2023-04-24T10:42:18;4.18;;;2.80;;
47894;SDS011;33653;52.302;8.134;2023-04-24T10:44:49;4.45;;;3.15;;
47894;SDS011;33653;52.302;8.134;2023-04-24T10:47:17;2.25;;;1.92;;
47894;SDS011;33653;52.302;8.134;2023-04-24T10:49:46;2.20;;;1.92;;
47894;SDS011;33653;52.302;8.134;2023-04-24T10:52:14;1.83;;;1.55;;
47894;SDS011;33653;52.302;8.134;2023-04-24T10:54:47;3.00;;;1.45;;
47894;SDS011;33653;52.302;8.134;2023-04-24T10:59:49;1.60;;;1.50;;
47894;SDS011;33653;52.302;8.134;2023-04-24T11:02:37;1.55;;;1.15;;
47894;SDS011;33653;52.302;8.134;2023-04-24T11:05:07;1.20;;;1.10;;
47894;SDS011;33653;52.302;8.134;2023-04-24T11:11:09;1.85;;;1.67;;
47894;SDS011;33653;52.302;8.134;2023-04-24T11:19:26;1.27;;;1.17;;
47894;SDS011;33653;52.302;8.134;2023-04-24T11:24:53;0.90;;;0.90;;
47894;SDS011;33653;52.302;8.134;2023-04-24T11:27:29;0.75;;;0.75;;
47894;SDS011;33653;52.302;8.134;2023-04-24T11:30:02;0.80;;;0.80;;
47894;SDS011;33653;52.302;8.134;2023-04-24T11:32:36;0.90;;;0.90;;
47894;SDS011;33653;52.302;8.134;2023-04-24T11:35:13;1.10;;;1.00;;
47894;SDS011;33653;52.302;8.134;2023-04-24T11:37:49;1.40;;;1.27;;
47894;SDS011;33653;52.302;8.134;2023-04-24T11:40:40;1.35;;;1.25;;
47894;SDS011;33653;52.302;8.134;2023-04-24T11:43:09;1.60;;;1.50;;
47894;SDS011;33653;52.302;8.134;2023-04-24T11:45:38;3.78;;;2.22;;
47894;SDS011;33653;52.302;8.134;2023-04-24T11:48:19;5.18;;;3.05;;
47894;SDS011;33653;52.302;8.134;2023-04-24T11:50:50;3.97;;;2.80;;
47894;SDS011;33653;52.302;8.134;2023-04-24T11:53:19;7.07;;;3.78;;
47894;SDS011;33653;52.302;8.134;2023-04-24T11:55:49;11.40;;;3.85;;
47894;SDS011;33653;52.302;8.134;2023-04-24T11:58:20;5.07;;;3.58;;
47894;SDS011;33653;52.302;8.134;2023-04-24T12:00:55;6.50;;;3.88;;
47894;SDS011;33653;52.302;8.134;2023-04-24T12:03:25;5.97;;;3.05;;
47894;SDS011;33653;52.302;8.134;2023-04-24T12:06:04;3.63;;;2.95;;
47894;SDS011;33653;52.302;8.134;2023-04-24T12:08:37;5.05;;;3.78;;
47894;SDS011;33653;52.302;8.134;2023-04-24T12:11:06;8.15;;;4.65;;
47894;SDS011;33653;52.302;8.134;2023-04-24T12:13:35;6.25;;;4.53;;
47894;SDS011;33653;52.302;8.134;2023-04-24T12:16:03;6.45;;;4.15;;
47894;SDS011;33653;52.302;8.134;2023-04-24T12:18:32;8.35;;;3.65;;
47894;SDS011;33653;52.302;8.134;2023-04-24T12:21:17;7.55;;;3.58;;
47894;SDS011;33653;52.302;8.134;2023-04-24T12:23:49;5.20;;;3.67;;
47894;SDS011;33653;52.302;8.134;2023-04-24T12:26:18;8.35;;;3.63;;
47894;SDS011;33653;52.302;8.134;2023-04-24T12:28:48;11.00;;;3.72;;
47894;SDS011;33653;52.302;8.134;2023-04-24T12:31:17;3.92;;;3.25;;
47894;SDS011;33653;52.302;8.134;2023-04-24T12:33:46;4.00;;;3.17;;
47894;SDS011;33653;52.302;8.134;2023-04-24T12:36:14;5.07;;;3.22;;
47894;SDS011;33653;52.302;8.134;2023-04-24T12:38:43;6.32;;;3.67;;
47894;SDS011;33653;52.302;8.134;2023-04-24T12:41:13;3.83;;;2.53;;
47894;SDS011;33653;52.302;8.134;2023-04-24T12:43:51;4.85;;;3.28;;
47894;SDS011;33653;52.302;8.134;2023-04-24T12:46:20;6.47;;;2.58;;
47894;SDS011;33653;52.302;8.134;2023-04-24T12:48:49;3.15;;;2.80;;
47894;SDS011;33653;52.302;8.134;2023-04-24T12:51:17;2.03;;;1.83;;
47894;SDS011;33653;52.302;8.134;2023-04-24T12:53:46;4.07;;;2.70;;
47894;SDS011;33653;52.302;8.134;2023-04-24T12:56:14;3.33;;;2.72;;
47894;SDS011;33653;52.302;8.134;2023-04-24T12:58:42;5.05;;;2.55;;
47894;SDS011;33653;52.302;8.134;2023-04-24T13:01:10;3.80;;;2.72;;
47894;SDS011;33653;52.302;8.134;2023-04-24T13:03:39;7.15;;;2.50;;
47894;SDS011;33653;52.302;8.134;2023-04-24T13:06:09;5.22;;;2.00;;
47894;SDS011;33653;52.302;8.134;2023-04-24T13:08:37;3.92;;;2.70;;
47894;SDS011;33653;52.302;8.134;2023-04-24T13:11:05;4.25;;;2.40;;
47894;SDS011;33653;52.302;8.134;2023-04-24T13:13:34;2.97;;;1.95;;
47894;SDS011;33653;52.302;8.134;2023-04-24T13:16:02;4.90;;;2.55;;
47894;SDS011;33653;52.302;8.134;2023-04-24T13:18:31;4.57;;;2.65;;
47894;SDS011;33653;52.302;8.134;2023-04-24T13:20:59;4.00;;;2.42;;
47894;SDS011;33653;52.302;8.134;2023-04-24T13:23:27;6.47;;;2.53;;
47894;SDS011;33653;52.302;8.134;2023-04-24T13:25:56;4.15;;;2.67;;
47894;SDS011;33653;52.302;8.134;2023-04-24T13:28:25;4.32;;;3.08;;
47894;SDS011;33653;52.302;8.134;2023-04-24T13:30:53;4.05;;;3.05;;
47894;SDS011;33653;52.302;8.134;2023-04-24T13:33:22;4.63;;;2.80;;
47894;SDS011;33653;52.302;8.134;2023-04-24T13:35:50;7.05;;;2.60;;
47894;SDS011;33653;52.302;8.134;2023-04-24T13:38:18;5.97;;;2.95;;
47894;SDS011;33653;52.302;8.134;2023-04-24T13:40:48;3.70;;;2.38;;
47894;SDS011;33653;52.302;8.134;2023-04-24T13:43:16;5.60;;;2.78;;
47894;SDS011;33653;52.302;8.134;2023-04-24T13:45:45;4.80;;;2.75;;
47894;SDS011;33653;52.302;8.134;2023-04-24T13:48:13;13.43;;;2.72;;
47894;SDS011;33653;52.302;8.134;2023-04-24T13:50:42;4.53;;;3.22;;
47894;SDS011;33653;52.302;8.134;2023-04-24T13:53:11;6.15;;;2.75;;
47894;SDS011;33653;52.302;8.134;2023-04-24T13:55:39;4.75;;;2.97;;
47894;SDS011;33653;52.302;8.134;2023-04-24T13:58:07;6.85;;;2.80;;
47894;SDS011;33653;52.302;8.134;2023-04-24T14:00:36;2.75;;;2.45;;
47894;SDS011;33653;52.302;8.134;2023-04-24T14:03:04;3.85;;;2.17;;
47894;SDS011;33653;52.302;8.134;2023-04-24T14:05:33;3.67;;;2.25;;
47894;SDS011;33653;52.302;8.134;2023-04-24T14:08:04;3.35;;;2.28;;
47894;SDS011;33653;52.302;8.134;2023-04-24T14:10:33;3.28;;;1.63;;
47894;SDS011;33653;52.302;8.134;2023-04-24T14:13:01;3.53;;;2.67;;
47894;SDS011;33653;52.302;8.134;2023-04-24T14:15:30;6.57;;;2.13;;
47894;SDS011;33653;52.302;8.134;2023-04-24T14:17:58;4.13;;;2.20;;
47894;SDS011;33653;52.302;8.134;2023-04-24T14:20:26;2.88;;;2.15;;
47894;SDS011;33653;52.302;8.134;2023-04-24T14:22:55;5.75;;;1.90;;
47894;SDS011;33653;52.302;8.134;2023-04-24T14:25:26;1.63;;;1.23;;
47894;SDS011;33653;52.302;8.134;2023-04-24T14:27:54;2.67;;;1.98;;
47894;SDS011;33653;52.302;8.134;2023-04-24T14:30:23;2.40;;;1.75;;
47894;SDS011;33653;52.302;8.134;2023-04-24T14:32:51;2.65;;;2.10;;
47894;SDS011;33653;52.302;8.134;2023-04-24T14:35:19;7.03;;;2.38;;
47894;SDS011;33653;52.302;8.134;2023-04-24T14:37:49;2.38;;;1.70;;
47894;SDS011;33653;52.302;8.134;2023-04-24T14:40:18;2.20;;;1.90;;
47894;SDS011;33653;52.302;8.134;2023-04-24T14:43:06;3.40;;;1.98;;
47894;SDS011;33653;52.302;8.134;2023-04-24T14:45:34;1.85;;;1.70;;
47894;SDS011;33653;52.302;8.134;2023-04-24T14:48:07;4.20;;;2.13;;
47894;SDS011;33653;52.302;8.134;2023-04-24T14:50:35;3.53;;;2.47;;
47894;SDS011;33653;52.302;8.134;2023-04-24T14:53:04;2.00;;;1.80;;
47894;SDS011;33653;52.302;8.134;2023-04-24T14:55:32;3.13;;;2.05;;
47894;SDS011;33653;52.302;8.134;2023-04-24T14:58:03;7.82;;;2.20;;
47894;SDS011;33653;52.302;8.134;2023-04-24T15:00:31;3.22;;;1.88;;
47894;SDS011;33653;52.302;8.134;2023-04-24T15:03:00;3.35;;;2.30;;
47894;SDS011;33653;52.302;8.134;2023-04-24T15:05:29;7.03;;;2.17;;
47894;SDS011;33653;52.302;8.134;2023-04-24T15:07:57;5.60;;;2.10;;
47894;SDS011;33653;52.302;8.134;2023-04-24T15:10:26;2.60;;;2.08;;
47894;SDS011;33653;52.302;8.134;2023-04-24T15:12:56;4.88;;;2.08;;
47894;SDS011;33653;52.302;8.134;2023-04-24T15:15:25;2.38;;;1.95;;
47894;SDS011;33653;52.302;8.134;2023-04-24T15:17:55;3.22;;;1.85;;
47894;SDS011;33653;52.302;8.134;2023-04-24T15:20:23;3.72;;;2.33;;
47894;SDS011;33653;52.302;8.134;2023-04-24T15:22:51;2.58;;;1.90;;
47894;SDS011;33653;52.302;8.134;2023-04-24T15:25:20;1.60;;;1.50;;